sensor_id;sensor_type;location;lat;lon;timestamp;P1;durP1;ratioP1;P2;durP2;ratioP2
40945;SDS011;55635;50.264;11.918;2023-11-21T00:00:44;3.78;;;1.75;;
40945;SDS011;55635;50.264;11.918;2023-11-21T00:03:25;2.13;;;1.40;;
40945;SDS011;55635;50.264;11.918;2023-11-21T00:06:08;3.65;;;1.55;;
40945;SDS011;55635;50.264;11.918;2023-11-21T00:08:49;1.30;;;1.17;;
40945;SDS011;55635;50.264;11.918;2023-11-21T00:11:31;2.53;;;1.20;;
40945;SDS011;55635;50.264;11.918;2023-11-21T00:14:12;1.90;;;1.38;;
40945;SDS011;55635;50.264;11.918;2023-11-21T00:16:55;1.50;;;1.33;;
40945;SDS011;55635;50.264;11.918;2023-11-21T00:19:36;1.90;;;1.48;;
40945;SDS011;55635;50.264;11.918;2023-11-21T00:22:16;3.80;;;1.42;;
40945;SDS011;55635;50.264;11.918;2023-11-21T00:24:58;2.75;;;1.60;;
40945;SDS011;55635;50.264;11.918;2023-11-21T00:27:39;2.58;;;2.03;;
40945;SDS011;55635;50.264;11.918;2023-11-21T00:30:20;3.47;;;1.90;;
40945;SDS011;55635;50.264;11.918;2023-11-21T00:33:02;2.85;;;2.00;;
40945;SDS011;55635;50.264;11.918;2023-11-21T00:35:44;4.32;;;1.75;;
40945;SDS011;55635;50.264;11.918;2023-11-21T00:38:25;3.63;;;2.33;;
40945;SDS011;55635;50.264;11.918;2023-11-21T00:41:07;4.05;;;2.53;;
40945;SDS011;55635;50.264;11.918;2023-11-21T00:43:48;2.38;;;1.92;;
40945;SDS011;55635;50.264;11.918;2023-11-21T00:46:29;3.80;;;2.30;;
40945;SDS011;55635;50.264;11.918;2023-11-21T00:49:10;1.95;;;1.67;;
40945;SDS011;55635;50.264;11.918;2023-11-21T00:51:51;1.73;;;1.63;;
40945;SDS011;55635;50.264;11.918;2023-11-21T00:54:32;2.75;;;1.90;;
40945;SDS011;55635;50.264;11.918;2023-11-21T00:57:14;2.78;;;2.35;;
40945;SDS011;55635;50.264;11.918;2023-11-21T00:59:55;3.75;;;2.40;;
40945;SDS011;55635;50.264;11.918;2023-11-21T01:02:36;3.05;;;2.28;;
40945;SDS011;55635;50.264;11.918;2023-11-21T01:05:17;6.20;;;2.90;;
40945;SDS011;55635;50.264;11.918;2023-11-21T01:07:58;3.15;;;2.65;;
40945;SDS011;55635;50.264;11.918;2023-11-21T01:10:39;3.92;;;2.45;;
40945;SDS011;55635;50.264;11.918;2023-11-21T01:13:21;5.80;;;2.75;;
40945;SDS011;55635;50.264;11.918;2023-11-21T01:16:02;4.97;;;2.50;;
40945;SDS011;55635;50.264;11.918;2023-11-21T01:18:44;2.70;;;2.50;;
40945;SDS011;55635;50.264;11.918;2023-11-21T01:21:26;5.70;;;2.80;;
40945;SDS011;55635;50.264;11.918;2023-11-21T01:24:08;4.95;;;2.85;;
40945;SDS011;55635;50.264;11.918;2023-11-21T01:26:50;3.78;;;2.63;;
40945;SDS011;55635;50.264;11.918;2023-11-21T01:29:32;3.92;;;2.17;;
40945;SDS011;55635;50.264;11.918;2023-11-21T01:32:14;3.38;;;2.50;;
40945;SDS011;55635;50.264;11.918;2023-11-21T01:34:56;3.03;;;2.33;;
40945;SDS011;55635;50.264;11.918;2023-11-21T01:37:37;2.53;;;2.20;;
40945;SDS011;55635;50.264;11.918;2023-11-21T01:40:18;5.97;;;2.67;;
40945;SDS011;55635;50.264;11.918;2023-11-21T01:42:59;3.63;;;2.83;;
40945;SDS011;55635;50.264;11.918;2023-11-21T01:45:43;3.33;;;2.58;;
40945;SDS011;55635;50.264;11.918;2023-11-21T01:48:25;4.15;;;2.35;;
40945;SDS011;55635;50.264;11.918;2023-11-21T01:51:07;5.97;;;2.30;;
40945;SDS011;55635;50.264;11.918;2023-11-21T01:53:49;2.70;;;2.03;;
40945;SDS011;55635;50.264;11.918;2023-11-21T01:56:30;6.43;;;2.83;;
40945;SDS011;55635;50.264;11.918;2023-11-21T01:59:13;3.28;;;2.05;;
40945;SDS011;55635;50.264;11.918;2023-11-21T02:02:03;2.97;;;2.13;;
40945;SDS011;55635;50.264;11.918;2023-11-21T02:04:48;4.82;;;1.92;;
40945;SDS011;55635;50.264;11.918;2023-11-21T02:07:29;3.63;;;2.03;;
40945;SDS011;55635;50.264;11.918;2023-11-21T02:10:12;4.22;;;2.35;;
40945;SDS011;55635;50.264;11.918;2023-11-21T02:12:55;2.78;;;1.92;;
40945;SDS011;55635;50.264;11.918;2023-11-21T02:15:37;3.10;;;2.80;;
40945;SDS011;55635;50.264;11.918;2023-11-21T02:18:18;5.03;;;2.67;;
40945;SDS011;55635;50.264;11.918;2023-11-21T02:20:59;4.30;;;2.92;;
40945;SDS011;55635;50.264;11.918;2023-11-21T02:23:43;7.65;;;3.25;;
40945;SDS011;55635;50.264;11.918;2023-11-21T02:26:24;3.95;;;2.83;;
40945;SDS011;55635;50.264;11.918;2023-11-21T02:29:06;2.72;;;2.40;;
40945;SDS011;55635;50.264;11.918;2023-11-21T02:31:51;4.03;;;2.47;;
40945;SDS011;55635;50.264;11.918;2023-11-21T02:34:35;6.85;;;2.70;;
40945;SDS011;55635;50.264;11.918;2023-11-21T02:37:18;3.05;;;2.10;;
40945;SDS011;55635;50.264;11.918;2023-11-21T02:39:59;5.88;;;2.50;;
40945;SDS011;55635;50.264;11.918;2023-11-21T02:42:39;3.35;;;2.22;;
40945;SDS011;55635;50.264;11.918;2023-11-21T02:45:21;4.63;;;2.33;;
40945;SDS011;55635;50.264;11.918;2023-11-21T02:48:02;4.57;;;2.40;;
40945;SDS011;55635;50.264;11.918;2023-11-21T02:50:44;4.90;;;2.88;;
40945;SDS011;55635;50.264;11.918;2023-11-21T02:53:25;4.10;;;2.33;;
40945;SDS011;55635;50.264;11.918;2023-11-21T02:56:06;4.13;;;2.33;;
40945;SDS011;55635;50.264;11.918;2023-11-21T02:58:47;2.80;;;2.22;;
40945;SDS011;55635;50.264;11.918;2023-11-21T03:01:29;3.88;;;2.53;;
40945;SDS011;55635;50.264;11.918;2023-11-21T03:04:09;3.78;;;2.60;;
40945;SDS011;55635;50.264;11.918;2023-11-21T03:06:51;2.25;;;2.13;;
40945;SDS011;55635;50.264;11.918;2023-11-21T03:09:32;3.00;;;2.15;;
40945;SDS011;55635;50.264;11.918;2023-11-21T03:12:13;7.45;;;3.20;;
40945;SDS011;55635;50.264;11.918;2023-11-21T03:14:56;5.47;;;3.20;;
40945;SDS011;55635;50.264;11.918;2023-11-21T03:17:37;5.60;;;3.25;;
40945;SDS011;55635;50.264;11.918;2023-11-21T03:20:18;4.00;;;2.88;;
40945;SDS011;55635;50.264;11.918;2023-11-21T03:22:59;5.07;;;3.53;;
40945;SDS011;55635;50.264;11.918;2023-11-21T03:25:40;3.05;;;2.75;;
40945;SDS011;55635;50.264;11.918;2023-11-21T03:28:23;3.78;;;2.83;;
40945;SDS011;55635;50.264;11.918;2023-11-21T03:31:04;3.20;;;2.83;;
40945;SDS011;55635;50.264;11.918;2023-11-21T03:33:46;4.22;;;3.00;;
40945;SDS011;55635;50.264;11.918;2023-11-21T03:36:27;5.40;;;3.10;;
40945;SDS011;55635;50.264;11.918;2023-11-21T03:39:08;3.53;;;2.97;;
40945;SDS011;55635;50.264;11.918;2023-11-21T03:41:49;3.55;;;3.20;;
40945;SDS011;55635;50.264;11.918;2023-11-21T03:44:31;8.02;;;3.95;;
40945;SDS011;55635;50.264;11.918;2023-11-21T03:47:12;4.97;;;3.38;;
40945;SDS011;55635;50.264;11.918;2023-11-21T03:49:54;4.38;;;3.90;;
40945;SDS011;55635;50.264;11.918;2023-11-21T03:52:35;7.47;;;4.13;;
40945;SDS011;55635;50.264;11.918;2023-11-21T03:55:16;5.10;;;3.75;;
40945;SDS011;55635;50.264;11.918;2023-11-21T03:57:57;4.88;;;4.22;;
40945;SDS011;55635;50.264;11.918;2023-11-21T04:00:39;4.00;;;3.15;;
40945;SDS011;55635;50.264;11.918;2023-11-21T04:03:19;4.55;;;2.78;;
40945;SDS011;55635;50.264;11.918;2023-11-21T04:06:00;5.85;;;3.50;;
40945;SDS011;55635;50.264;11.918;2023-11-21T04:08:41;7.72;;;3.50;;
40945;SDS011;55635;50.264;11.918;2023-11-21T04:11:22;3.65;;;3.35;;
40945;SDS011;55635;50.264;11.918;2023-11-21T04:14:03;3.42;;;3.13;;
40945;SDS011;55635;50.264;11.918;2023-11-21T04:16:44;6.03;;;3.80;;
40945;SDS011;55635;50.264;11.918;2023-11-21T04:19:25;8.48;;;3.30;;
40945;SDS011;55635;50.264;11.918;2023-11-21T04:22:05;3.28;;;2.97;;
40945;SDS011;55635;50.264;11.918;2023-11-21T04:24:46;4.75;;;3.20;;
40945;SDS011;55635;50.264;11.918;2023-11-21T04:27:27;5.50;;;3.35;;
40945;SDS011;55635;50.264;11.918;2023-11-21T04:30:08;5.18;;;3.83;;
40945;SDS011;55635;50.264;11.918;2023-11-21T04:32:54;5.47;;;4.00;;
40945;SDS011;55635;50.264;11.918;2023-11-21T04:35:34;5.30;;;4.10;;
40945;SDS011;55635;50.264;11.918;2023-11-21T04:38:15;4.60;;;4.03;;
40945;SDS011;55635;50.264;11.918;2023-11-21T04:40:56;8.02;;;3.90;;
40945;SDS011;55635;50.264;11.918;2023-11-21T04:43:37;6.82;;;3.80;;
40945;SDS011;55635;50.264;11.918;2023-11-21T04:46:18;12.98;;;4.60;;
40945;SDS011;55635;50.264;11.918;2023-11-21T04:48:59;6.78;;;4.20;;
40945;SDS011;55635;50.264;11.918;2023-11-21T04:51:40;8.98;;;4.60;;
40945;SDS011;55635;50.264;11.918;2023-11-21T04:54:21;6.25;;;4.75;;
40945;SDS011;55635;50.264;11.918;2023-11-21T04:57:02;8.48;;;5.25;;
40945;SDS011;55635;50.264;11.918;2023-11-21T04:59:48;5.88;;;4.13;;
40945;SDS011;55635;50.264;11.918;2023-11-21T05:02:30;6.78;;;4.97;;
40945;SDS011;55635;50.264;11.918;2023-11-21T05:05:12;6.28;;;5.00;;
40945;SDS011;55635;50.264;11.918;2023-11-21T05:07:52;6.25;;;4.97;;
40945;SDS011;55635;50.264;11.918;2023-11-21T05:10:33;8.57;;;4.75;;
40945;SDS011;55635;50.264;11.918;2023-11-21T05:13:14;6.80;;;5.82;;
40945;SDS011;55635;50.264;11.918;2023-11-21T05:15:57;8.65;;;6.30;;
40945;SDS011;55635;50.264;11.918;2023-11-21T05:18:38;12.77;;;6.20;;
40945;SDS011;55635;50.264;11.918;2023-11-21T05:21:20;11.20;;;7.20;;
40945;SDS011;55635;50.264;11.918;2023-11-21T05:24:01;6.75;;;5.68;;
40945;SDS011;55635;50.264;11.918;2023-11-21T05:26:42;10.13;;;5.30;;
40945;SDS011;55635;50.264;11.918;2023-11-21T05:29:23;8.90;;;5.70;;
40945;SDS011;55635;50.264;11.918;2023-11-21T05:32:05;14.95;;;6.47;;
40945;SDS011;55635;50.264;11.918;2023-11-21T05:34:46;12.77;;;7.30;;
40945;SDS011;55635;50.264;11.918;2023-11-21T05:37:27;14.95;;;7.03;;
40945;SDS011;55635;50.264;11.918;2023-11-21T05:40:08;10.77;;;6.70;;
40945;SDS011;55635;50.264;11.918;2023-11-21T05:42:50;8.30;;;6.50;;
40945;SDS011;55635;50.264;11.918;2023-11-21T05:45:31;7.75;;;5.47;;
40945;SDS011;55635;50.264;11.918;2023-11-21T05:48:12;9.30;;;6.57;;
40945;SDS011;55635;50.264;11.918;2023-11-21T05:50:53;9.82;;;6.22;;
40945;SDS011;55635;50.264;11.918;2023-11-21T05:53:35;9.98;;;6.53;;
40945;SDS011;55635;50.264;11.918;2023-11-21T05:56:16;12.50;;;7.22;;
40945;SDS011;55635;50.264;11.918;2023-11-21T05:58:58;10.88;;;7.53;;
40945;SDS011;55635;50.264;11.918;2023-11-21T06:01:39;9.93;;;6.28;;
40945;SDS011;55635;50.264;11.918;2023-11-21T06:04:20;10.52;;;6.57;;
40945;SDS011;55635;50.264;11.918;2023-11-21T06:07:04;9.77;;;5.72;;
40945;SDS011;55635;50.264;11.918;2023-11-21T06:09:45;8.25;;;5.72;;
40945;SDS011;55635;50.264;11.918;2023-11-21T06:12:25;9.65;;;6.50;;
40945;SDS011;55635;50.264;11.918;2023-11-21T06:15:07;7.47;;;5.38;;
40945;SDS011;55635;50.264;11.918;2023-11-21T06:17:49;8.45;;;5.78;;
40945;SDS011;55635;50.264;11.918;2023-11-21T06:20:32;9.10;;;6.07;;
40945;SDS011;55635;50.264;11.918;2023-11-21T06:23:13;11.90;;;6.45;;
40945;SDS011;55635;50.264;11.918;2023-11-21T06:25:54;16.60;;;5.82;;
40945;SDS011;55635;50.264;11.918;2023-11-21T06:28:35;8.25;;;5.57;;
40945;SDS011;55635;50.264;11.918;2023-11-21T06:31:16;13.80;;;6.18;;
40945;SDS011;55635;50.264;11.918;2023-11-21T06:33:58;8.23;;;5.53;;
40945;SDS011;55635;50.264;11.918;2023-11-21T06:36:41;13.75;;;7.20;;
40945;SDS011;55635;50.264;11.918;2023-11-21T06:39:22;14.20;;;7.53;;
40945;SDS011;55635;50.264;11.918;2023-11-21T06:42:03;13.75;;;8.13;;
40945;SDS011;55635;50.264;11.918;2023-11-21T06:44:45;18.00;;;8.85;;
40945;SDS011;55635;50.264;11.918;2023-11-21T06:47:28;15.68;;;9.05;;
40945;SDS011;55635;50.264;11.918;2023-11-21T06:50:09;18.83;;;8.95;;
40945;SDS011;55635;50.264;11.918;2023-11-21T06:52:50;14.52;;;8.90;;
40945;SDS011;55635;50.264;11.918;2023-11-21T06:55:31;14.75;;;8.20;;
40945;SDS011;55635;50.264;11.918;2023-11-21T06:58:12;11.25;;;7.55;;
40945;SDS011;55635;50.264;11.918;2023-11-21T07:00:54;14.43;;;8.13;;
40945;SDS011;55635;50.264;11.918;2023-11-21T07:03:35;13.50;;;7.90;;
40945;SDS011;55635;50.264;11.918;2023-11-21T07:06:17;10.73;;;6.50;;
40945;SDS011;55635;50.264;11.918;2023-11-21T07:08:58;12.05;;;6.80;;
40945;SDS011;55635;50.264;11.918;2023-11-21T07:11:39;11.02;;;7.22;;
40945;SDS011;55635;50.264;11.918;2023-11-21T07:14:20;11.98;;;7.15;;
40945;SDS011;55635;50.264;11.918;2023-11-21T07:17:02;11.32;;;6.80;;
40945;SDS011;55635;50.264;11.918;2023-11-21T07:19:43;12.98;;;7.10;;
40945;SDS011;55635;50.264;11.918;2023-11-21T07:22:24;9.07;;;6.35;;
40945;SDS011;55635;50.264;11.918;2023-11-21T07:25:05;8.77;;;6.18;;
40945;SDS011;55635;50.264;11.918;2023-11-21T07:27:47;9.63;;;5.38;;
40945;SDS011;55635;50.264;11.918;2023-11-21T07:30:28;9.05;;;4.93;;
40945;SDS011;55635;50.264;11.918;2023-11-21T07:33:09;9.40;;;5.30;;
40945;SDS011;55635;50.264;11.918;2023-11-21T07:35:50;9.70;;;4.95;;
40945;SDS011;55635;50.264;11.918;2023-11-21T07:38:32;6.97;;;4.82;;
40945;SDS011;55635;50.264;11.918;2023-11-21T07:41:13;5.35;;;4.65;;
40945;SDS011;55635;50.264;11.918;2023-11-21T07:43:57;9.90;;;4.95;;
40945;SDS011;55635;50.264;11.918;2023-11-21T07:46:38;10.63;;;4.65;;
40945;SDS011;55635;50.264;11.918;2023-11-21T07:49:20;10.40;;;4.93;;
40945;SDS011;55635;50.264;11.918;2023-11-21T07:52:03;8.82;;;5.43;;
40945;SDS011;55635;50.264;11.918;2023-11-21T07:54:44;9.18;;;5.32;;
40945;SDS011;55635;50.264;11.918;2023-11-21T07:57:25;7.25;;;4.93;;
40945;SDS011;55635;50.264;11.918;2023-11-21T08:00:06;8.77;;;5.70;;
40945;SDS011;55635;50.264;11.918;2023-11-21T08:02:52;8.25;;;5.30;;
40945;SDS011;55635;50.264;11.918;2023-11-21T08:05:33;8.73;;;5.65;;
40945;SDS011;55635;50.264;11.918;2023-11-21T08:08:14;9.30;;;4.88;;
40945;SDS011;55635;50.264;11.918;2023-11-21T08:10:58;7.30;;;5.13;;
40945;SDS011;55635;50.264;11.918;2023-11-21T08:13:41;8.15;;;5.00;;
40945;SDS011;55635;50.264;11.918;2023-11-21T08:16:25;10.38;;;5.22;;
40945;SDS011;55635;50.264;11.918;2023-11-21T08:19:07;11.52;;;5.70;;
40945;SDS011;55635;50.264;11.918;2023-11-21T08:21:49;7.57;;;4.10;;
40945;SDS011;55635;50.264;11.918;2023-11-21T08:24:31;7.38;;;4.55;;
40945;SDS011;55635;50.264;11.918;2023-11-21T08:27:12;7.00;;;5.18;;
40945;SDS011;55635;50.264;11.918;2023-11-21T08:29:55;5.07;;;4.57;;
40945;SDS011;55635;50.264;11.918;2023-11-21T08:32:37;6.05;;;4.22;;
40945;SDS011;55635;50.264;11.918;2023-11-21T08:35:18;5.55;;;3.40;;
40945;SDS011;55635;50.264;11.918;2023-11-21T08:37:59;3.90;;;3.03;;
40945;SDS011;55635;50.264;11.918;2023-11-21T08:40:40;6.13;;;2.90;;
40945;SDS011;55635;50.264;11.918;2023-11-21T08:43:21;5.75;;;3.63;;
40945;SDS011;55635;50.264;11.918;2023-11-21T08:46:02;9.30;;;4.90;;
40945;SDS011;55635;50.264;11.918;2023-11-21T08:48:43;14.68;;;7.00;;
40945;SDS011;55635;50.264;11.918;2023-11-21T08:51:24;7.20;;;5.00;;
40945;SDS011;55635;50.264;11.918;2023-11-21T08:54:05;11.18;;;6.85;;
40945;SDS011;55635;50.264;11.918;2023-11-21T08:56:48;24.70;;;11.90;;
40945;SDS011;55635;50.264;11.918;2023-11-21T08:59:30;22.38;;;12.10;;
40945;SDS011;55635;50.264;11.918;2023-11-21T09:02:11;33.63;;;15.50;;
40945;SDS011;55635;50.264;11.918;2023-11-21T09:04:52;25.23;;;14.02;;
40945;SDS011;55635;50.264;11.918;2023-11-21T09:07:33;17.58;;;8.80;;
40945;SDS011;55635;50.264;11.918;2023-11-21T09:10:13;17.23;;;9.38;;
40945;SDS011;55635;50.264;11.918;2023-11-21T09:12:54;17.83;;;7.55;;
40945;SDS011;55635;50.264;11.918;2023-11-21T09:15:35;16.30;;;6.75;;
40945;SDS011;55635;50.264;11.918;2023-11-21T09:18:17;17.13;;;6.68;;
40945;SDS011;55635;50.264;11.918;2023-11-21T09:20:59;34.55;;;15.60;;
40945;SDS011;55635;50.264;11.918;2023-11-21T09:23:40;22.60;;;9.45;;
40945;SDS011;55635;50.264;11.918;2023-11-21T09:26:21;16.65;;;6.13;;
40945;SDS011;55635;50.264;11.918;2023-11-21T09:29:02;8.27;;;3.05;;
40945;SDS011;55635;50.264;11.918;2023-11-21T09:31:43;10.02;;;2.67;;
40945;SDS011;55635;50.264;11.918;2023-11-21T09:34:24;9.63;;;3.53;;
40945;SDS011;55635;50.264;11.918;2023-11-21T09:37:06;10.82;;;3.63;;
40945;SDS011;55635;50.264;11.918;2023-11-21T09:39:48;11.88;;;4.07;;
40945;SDS011;55635;50.264;11.918;2023-11-21T09:48:05;8.52;;;3.22;;
40945;SDS011;55635;50.264;11.918;2023-11-21T09:50:51;9.95;;;3.15;;
40945;SDS011;55635;50.264;11.918;2023-11-21T09:53:34;8.98;;;3.50;;
40945;SDS011;55635;50.264;11.918;2023-11-21T09:56:16;12.85;;;6.95;;
40945;SDS011;55635;50.264;11.918;2023-11-21T09:59:03;9.75;;;5.35;;
40945;SDS011;55635;50.264;11.918;2023-11-21T10:01:47;7.18;;;3.35;;
40945;SDS011;55635;50.264;11.918;2023-11-21T10:04:29;8.43;;;3.95;;
40945;SDS011;55635;50.264;11.918;2023-11-21T10:07:12;5.70;;;3.05;;
40945;SDS011;55635;50.264;11.918;2023-11-21T10:09:57;8.60;;;3.70;;
40945;SDS011;55635;50.264;11.918;2023-11-21T10:12:39;13.85;;;4.25;;
40945;SDS011;55635;50.264;11.918;2023-11-21T10:15:23;8.02;;;3.90;;
40945;SDS011;55635;50.264;11.918;2023-11-21T10:18:07;8.73;;;3.10;;
40945;SDS011;55635;50.264;11.918;2023-11-21T10:20:49;4.40;;;2.88;;
40945;SDS011;55635;50.264;11.918;2023-11-21T10:23:33;5.38;;;2.78;;
40945;SDS011;55635;50.264;11.918;2023-11-21T10:26:14;8.95;;;2.95;;
40945;SDS011;55635;50.264;11.918;2023-11-21T10:28:59;4.85;;;2.42;;
40945;SDS011;55635;50.264;11.918;2023-11-21T10:31:45;8.43;;;2.67;;
40945;SDS011;55635;50.264;11.918;2023-11-21T10:34:29;7.47;;;3.13;;
40945;SDS011;55635;50.264;11.918;2023-11-21T10:37:13;11.43;;;2.80;;
40945;SDS011;55635;50.264;11.918;2023-11-21T10:39:58;8.95;;;2.35;;
40945;SDS011;55635;50.264;11.918;2023-11-21T10:42:40;5.68;;;2.35;;
40945;SDS011;55635;50.264;11.918;2023-11-21T10:45:21;8.00;;;2.50;;
40945;SDS011;55635;50.264;11.918;2023-11-21T10:48:07;5.80;;;2.70;;
40945;SDS011;55635;50.264;11.918;2023-11-21T10:50:57;7.70;;;2.83;;
40945;SDS011;55635;50.264;11.918;2023-11-21T10:53:39;11.02;;;3.42;;
40945;SDS011;55635;50.264;11.918;2023-11-21T10:56:23;10.55;;;3.05;;
40945;SDS011;55635;50.264;11.918;2023-11-21T10:59:10;12.40;;;2.90;;
40945;SDS011;55635;50.264;11.918;2023-11-21T11:01:54;7.50;;;3.05;;
40945;SDS011;55635;50.264;11.918;2023-11-21T11:04:40;10.77;;;3.33;;
40945;SDS011;55635;50.264;11.918;2023-11-21T11:07:24;6.53;;;3.10;;
40945;SDS011;55635;50.264;11.918;2023-11-21T11:10:07;12.50;;;3.88;;
40945;SDS011;55635;50.264;11.918;2023-11-21T11:12:54;7.38;;;3.22;;
40945;SDS011;55635;50.264;11.918;2023-11-21T11:15:39;11.07;;;3.65;;
40945;SDS011;55635;50.264;11.918;2023-11-21T11:18:20;13.48;;;3.63;;
40945;SDS011;55635;50.264;11.918;2023-11-21T11:24:25;11.65;;;3.72;;
40945;SDS011;55635;50.264;11.918;2023-11-21T11:27:59;9.95;;;3.58;;
40945;SDS011;55635;50.264;11.918;2023-11-21T11:31:02;12.35;;;4.18;;
40945;SDS011;55635;50.264;11.918;2023-11-21T11:33:57;8.85;;;3.47;;
40945;SDS011;55635;50.264;11.918;2023-11-21T11:37:07;14.15;;;3.70;;
40945;SDS011;55635;50.264;11.918;2023-11-21T11:39:49;7.22;;;3.40;;
40945;SDS011;55635;50.264;11.918;2023-11-21T11:42:31;11.63;;;3.40;;
40945;SDS011;55635;50.264;11.918;2023-11-21T11:45:19;9.02;;;3.15;;
40945;SDS011;55635;50.264;11.918;2023-11-21T11:48:00;12.38;;;4.00;;
40945;SDS011;55635;50.264;11.918;2023-11-21T11:53:50;11.90;;;3.70;;
40945;SDS011;55635;50.264;11.918;2023-11-21T11:56:33;14.10;;;4.03;;
40945;SDS011;55635;50.264;11.918;2023-11-21T11:59:16;11.23;;;4.03;;
40945;SDS011;55635;50.264;11.918;2023-11-21T12:01:57;11.60;;;3.88;;
40945;SDS011;55635;50.264;11.918;2023-11-21T12:04:40;16.42;;;4.13;;
40945;SDS011;55635;50.264;11.918;2023-11-21T12:07:21;13.57;;;4.07;;
40945;SDS011;55635;50.264;11.918;2023-11-21T12:10:04;6.63;;;3.55;;
40945;SDS011;55635;50.264;11.918;2023-11-21T12:12:46;12.13;;;4.00;;
40945;SDS011;55635;50.264;11.918;2023-11-21T12:15:29;12.73;;;4.00;;
40945;SDS011;55635;50.264;11.918;2023-11-21T12:18:11;9.57;;;4.65;;
40945;SDS011;55635;50.264;11.918;2023-11-21T12:20:52;12.38;;;4.20;;
40945;SDS011;55635;50.264;11.918;2023-11-21T12:23:33;10.35;;;4.72;;
40945;SDS011;55635;50.264;11.918;2023-11-21T12:26:15;10.45;;;4.03;;
40945;SDS011;55635;50.264;11.918;2023-11-21T12:28:56;7.68;;;3.42;;
40945;SDS011;55635;50.264;11.918;2023-11-21T12:31:37;7.40;;;2.92;;
40945;SDS011;55635;50.264;11.918;2023-11-21T12:34:17;6.97;;;3.15;;
40945;SDS011;55635;50.264;11.918;2023-11-21T12:36:58;5.78;;;3.00;;
40945;SDS011;55635;50.264;11.918;2023-11-21T12:39:40;6.53;;;3.25;;
40945;SDS011;55635;50.264;11.918;2023-11-21T12:42:20;5.50;;;2.97;;
40945;SDS011;55635;50.264;11.918;2023-11-21T12:47:59;5.93;;;3.38;;
40945;SDS011;55635;50.264;11.918;2023-11-21T12:50:48;4.93;;;3.35;;
40945;SDS011;55635;50.264;11.918;2023-11-21T12:53:33;4.90;;;3.05;;
40945;SDS011;55635;50.264;11.918;2023-11-21T12:56:18;7.93;;;2.40;;
40945;SDS011;55635;50.264;11.918;2023-11-21T12:59:05;4.85;;;2.50;;
40945;SDS011;55635;50.264;11.918;2023-11-21T13:01:46;4.28;;;2.65;;
40945;SDS011;55635;50.264;11.918;2023-11-21T13:04:31;6.88;;;2.78;;
40945;SDS011;55635;50.264;11.918;2023-11-21T13:07:14;3.00;;;2.15;;
40945;SDS011;55635;50.264;11.918;2023-11-21T13:09:57;5.25;;;3.03;;
40945;SDS011;55635;50.264;11.918;2023-11-21T13:12:45;3.05;;;2.70;;
40945;SDS011;55635;50.264;11.918;2023-11-21T13:15:28;5.43;;;2.70;;
40945;SDS011;55635;50.264;11.918;2023-11-21T13:18:11;3.83;;;2.90;;
40945;SDS011;55635;50.264;11.918;2023-11-21T13:20:53;3.10;;;2.72;;
40945;SDS011;55635;50.264;11.918;2023-11-21T13:23:35;4.07;;;2.70;;
40945;SDS011;55635;50.264;11.918;2023-11-21T13:26:17;2.83;;;2.40;;
40945;SDS011;55635;50.264;11.918;2023-11-21T13:29:00;4.57;;;2.65;;
40945;SDS011;55635;50.264;11.918;2023-11-21T13:31:45;2.38;;;2.17;;
40945;SDS011;55635;50.264;11.918;2023-11-21T13:34:26;2.45;;;2.22;;
40945;SDS011;55635;50.264;11.918;2023-11-21T13:37:07;2.83;;;2.28;;
40945;SDS011;55635;50.264;11.918;2023-11-21T13:39:48;2.72;;;2.30;;
40945;SDS011;55635;50.264;11.918;2023-11-21T13:42:29;9.75;;;5.13;;
40945;SDS011;55635;50.264;11.918;2023-11-21T13:45:12;7.85;;;5.35;;
40945;SDS011;55635;50.264;11.918;2023-11-21T13:47:54;12.20;;;9.30;;
40945;SDS011;55635;50.264;11.918;2023-11-21T13:50:37;4.18;;;3.58;;
40945;SDS011;55635;50.264;11.918;2023-11-21T13:53:19;4.22;;;2.88;;
40945;SDS011;55635;50.264;11.918;2023-11-21T13:56:02;4.13;;;3.78;;
40945;SDS011;55635;50.264;11.918;2023-11-21T13:58:44;7.30;;;4.15;;
40945;SDS011;55635;50.264;11.918;2023-11-21T14:01:30;2.75;;;2.55;;
40945;SDS011;55635;50.264;11.918;2023-11-21T14:04:11;2.90;;;2.70;;
40945;SDS011;55635;50.264;11.918;2023-11-21T14:06:55;1.63;;;1.52;;
40945;SDS011;55635;50.264;11.918;2023-11-21T14:09:36;2.53;;;2.33;;
40945;SDS011;55635;50.264;11.918;2023-11-21T14:12:24;2.83;;;2.17;;
40945;SDS011;55635;50.264;11.918;2023-11-21T14:15:05;2.20;;;2.00;;
40945;SDS011;55635;50.264;11.918;2023-11-21T14:17:49;4.10;;;2.95;;
40945;SDS011;55635;50.264;11.918;2023-11-21T14:20:30;2.50;;;2.30;;
40945;SDS011;55635;50.264;11.918;2023-11-21T14:23:11;2.75;;;2.35;;
40945;SDS011;55635;50.264;11.918;2023-11-21T14:25:52;2.33;;;2.10;;
40945;SDS011;55635;50.264;11.918;2023-11-21T14:28:32;2.88;;;2.58;;
40945;SDS011;55635;50.264;11.918;2023-11-21T14:31:15;3.42;;;3.10;;
40945;SDS011;55635;50.264;11.918;2023-11-21T14:33:57;3.63;;;2.88;;
40945;SDS011;55635;50.264;11.918;2023-11-21T14:36:38;7.32;;;5.05;;
40945;SDS011;55635;50.264;11.918;2023-11-21T14:39:19;5.80;;;4.35;;
40945;SDS011;55635;50.264;11.918;2023-11-21T14:42:03;4.55;;;4.15;;
40945;SDS011;55635;50.264;11.918;2023-11-21T14:44:44;4.43;;;3.95;;
40945;SDS011;55635;50.264;11.918;2023-11-21T14:47:25;10.25;;;9.15;;
40945;SDS011;55635;50.264;11.918;2023-11-21T14:50:07;13.15;;;9.43;;
40945;SDS011;55635;50.264;11.918;2023-11-21T14:53:09;22.65;;;13.15;;
40945;SDS011;55635;50.264;11.918;2023-11-21T14:55:52;62.58;;;32.70;;
40945;SDS011;55635;50.264;11.918;2023-11-21T14:58:38;16.25;;;9.98;;
40945;SDS011;55635;50.264;11.918;2023-11-21T15:01:20;24.42;;;13.20;;
40945;SDS011;55635;50.264;11.918;2023-11-21T15:04:15;9.13;;;6.03;;
40945;SDS011;55635;50.264;11.918;2023-11-21T15:07:08;53.50;;;21.58;;
40945;SDS011;55635;50.264;11.918;2023-11-21T15:09:51;23.95;;;12.65;;
40945;SDS011;55635;50.264;11.918;2023-11-21T15:12:33;44.78;;;24.30;;
40945;SDS011;55635;50.264;11.918;2023-11-21T15:15:18;13.30;;;8.27;;
40945;SDS011;55635;50.264;11.918;2023-11-21T15:17:59;12.45;;;4.70;;
40945;SDS011;55635;50.264;11.918;2023-11-21T15:20:40;7.15;;;5.13;;
40945;SDS011;55635;50.264;11.918;2023-11-21T15:23:21;8.73;;;5.95;;
40945;SDS011;55635;50.264;11.918;2023-11-21T15:26:02;11.25;;;8.15;;
40945;SDS011;55635;50.264;11.918;2023-11-21T15:28:45;9.10;;;5.60;;
40945;SDS011;55635;50.264;11.918;2023-11-21T15:31:25;4.47;;;3.70;;
40945;SDS011;55635;50.264;11.918;2023-11-21T15:34:06;6.07;;;4.70;;
40945;SDS011;55635;50.264;11.918;2023-11-21T15:36:48;3.30;;;2.90;;
40945;SDS011;55635;50.264;11.918;2023-11-21T15:39:33;3.28;;;2.97;;
40945;SDS011;55635;50.264;11.918;2023-11-21T15:42:14;4.03;;;3.63;;
40945;SDS011;55635;50.264;11.918;2023-11-21T15:44:54;3.80;;;3.45;;
40945;SDS011;55635;50.264;11.918;2023-11-21T15:47:36;4.88;;;4.20;;
40945;SDS011;55635;50.264;11.918;2023-11-21T15:50:17;6.22;;;4.03;;
40945;SDS011;55635;50.264;11.918;2023-11-21T15:52:58;2.42;;;2.22;;
40945;SDS011;55635;50.264;11.918;2023-11-21T15:55:39;2.28;;;2.08;;
40945;SDS011;55635;50.264;11.918;2023-11-21T15:58:22;2.50;;;2.30;;
40945;SDS011;55635;50.264;11.918;2023-11-21T16:01:05;3.45;;;2.70;;
40945;SDS011;55635;50.264;11.918;2023-11-21T16:03:48;2.83;;;2.55;;
40945;SDS011;55635;50.264;11.918;2023-11-21T16:06:30;2.70;;;2.20;;
40945;SDS011;55635;50.264;11.918;2023-11-21T16:09:15;2.80;;;2.45;;
40945;SDS011;55635;50.264;11.918;2023-11-21T16:12:10;3.17;;;2.75;;
40945;SDS011;55635;50.264;11.918;2023-11-21T16:14:52;5.50;;;4.47;;